Time;durP1;ratioP1;P1;durP2;ratioP2;P2;SDS_P1;SDS_P2;PMS_P1;PMS_P2;Temp;Humidity;BMP_temperature;BMP_pressure;BME280_temperature;BME280_humidity;BME280_pressure;Samples;Min_cycle;Max_cycle;Signal;HPM_P1;HPM_P2
2022/01/03 00:01:34;;;;;;;26.15;15.95;;;;;;;;;;6268702;22;20003;-76
2022/01/03 00:04:02;;;;;;;24.33;14.73;;;;;;;;;;6290833;22;20000;-77
2022/01/03 00:06:28;;;;;;;28.48;16.58;;;;;;;;;;6293252;22;20003;-77
2022/01/03 00:08:54;;;;;;;26.80;17.92;;;;;;;;;;6293214;22;20011;-77
2022/01/03 00:11:42;;;;;;;26.52;17.42;;;;;;;;;;6266139;22;19984;-78
2022/01/03 00:14:08;;;;;;;24.83;16.75;;;;;;;;;;6175922;23;20020;-76
2022/01/03 00:16:34;;;;;;;36.08;22.73;;;;;;;;;;6199584;23;20002;-77
2022/01/03 00:19:20;;;;;;;40.63;25.33;;;;;;;;;;6202082;23;20056;-76
2022/01/03 00:21:47;;;;;;;39.97;24.58;;;;;;;;;;6201294;23;20007;-77
2022/01/03 00:24:13;;;;;;;36.20;22.73;;;;;;;;;;6201844;23;20013;-77
2022/01/03 00:26:50;;;;;;;29.17;18.92;;;;;;;;;;6210741;23;20060;-79
2022/01/03 00:29:31;;;;;;;22.05;15.15;;;;;;;;;;6185231;23;20005;-78
2022/01/03 00:32:00;;;;;;;23.58;12.95;;;;;;;;;;6176903;23;20018;-76
2022/01/03 00:34:29;;;;;;;15.15;10.93;;;;;;;;;;6151027;23;20022;-78
2022/01/03 00:36:56;;;;;;;16.30;9.98;;;;;;;;;;6142609;23;20041;-76
2022/01/03 00:39:22;;;;;;;13.60;8.77;;;;;;;;;;6117392;23;20081;-77
2022/01/03 00:41:49;;;;;;;12.70;7.50;;;;;;;;;;6122713;23;20002;-76
2022/01/03 00:44:16;;;;;;;14.32;7.68;;;;;;;;;;6154993;23;20087;-76
2022/01/03 00:46:47;;;;;;;13.60;7.30;;;;;;;;;;6183285;23;20009;-80
2022/01/03 00:49:16;;;;;;;11.13;7.13;;;;;;;;;;6183184;23;20012;-76
2022/01/03 00:51:48;;;;;;;10.32;6.88;;;;;;;;;;6200992;23;20009;-77
2022/01/03 00:54:15;;;;;;;11.25;7.00;;;;;;;;;;6202438;23;20518;-76
2022/01/03 00:56:47;;;;;;;11.80;6.40;;;;;;;;;;6179033;23;20009;-77
2022/01/03 00:59:15;;;;;;;9.10;6.03;;;;;;;;;;6202707;23;19988;-77
2022/01/03 01:01:48;;;;;;;9.23;5.50;;;;;;;;;;6176741;23;20008;-78
2022/01/03 01:04:15;;;;;;;8.70;6.07;;;;;;;;;;6205896;23;20645;-76
2022/01/03 01:06:42;;;;;;;9.27;5.05;;;;;;;;;;6174688;23;20045;-77
2022/01/03 01:09:14;;;;;;;9.52;5.63;;;;;;;;;;6203884;23;20013;-79
2022/01/03 01:11:47;;;;;;;8.23;5.40;;;;;;;;;;6203856;23;20005;-78
2022/01/03 01:14:14;;;;;;;9.13;5.15;;;;;;;;;;6179579;23;20518;-78
2022/01/03 01:16:41;;;;;;;10.50;5.72;;;;;;;;;;6178543;23;20420;-79
2022/01/03 01:19:13;;;;;;;9.48;5.60;;;;;;;;;;6205777;23;19985;-79
2022/01/03 01:21:42;;;;;;;8.30;5.80;;;;;;;;;;6210293;23;20005;-80
2022/01/03 01:24:08;;;;;;;11.70;6.13;;;;;;;;;;6227667;23;20066;-77
2022/01/03 01:29:19;;;;;;;11.10;6.63;;;;;;;;;;6266132;23;20015;-79
2022/01/03 01:31:52;;;;;;;9.77;6.55;;;;;;;;;;6267324;23;20012;-77
2022/01/03 01:34:25;;;;;;;8.88;6.13;;;;;;;;;;6271145;23;20067;-77
2022/01/03 01:36:52;;;;;;;10.48;6.45;;;;;;;;;;6237595;23;20011;-76
2022/01/03 01:39:20;;;;;;;12.48;6.93;;;;;;;;;;6264535;23;20340;-76
2022/01/03 01:41:48;;;;;;;13.68;7.55;;;;;;;;;;6263925;23;19996;-78
2022/01/03 01:44:15;;;;;;;10.98;7.03;;;;;;;;;;6234769;23;20012;-77
2022/01/03 01:46:48;;;;;;;13.82;7.93;;;;;;;;;;6270094;23;20011;-77
2022/01/03 01:49:15;;;;;;;;;;;;;;;;;;6219052;23;20005;-77
2022/01/03 01:51:44;;;;;;;15.60;8.77;;;;;;;;;;6241586;23;19884;-78
2022/01/03 01:54:13;;;;;;;12.23;8.23;;;;;;;;;;6244002;23;20100;-76
2022/01/03 01:56:51;;;;;;;15.98;8.77;;;;;;;;;;6242943;23;19988;-77
2022/01/03 01:59:23;;;;;;;15.63;9.50;;;;;;;;;;6271278;23;19996;-78
2022/01/03 02:01:52;;;;;;;14.30;9.20;;;;;;;;;;6241994;23;19988;-76
2022/01/03 02:04:50;;;;;;;14.45;9.02;;;;;;;;;;6264730;23;20011;-78
2022/01/03 02:07:25;;;;;;;13.75;8.90;;;;;;;;;;6118257;23;20087;-77
2022/01/03 02:10:00;;;;;;;11.85;8.23;;;;;;;;;;6118359;23;20473;-78
2022/01/03 02:12:27;;;;;;;12.85;8.73;;;;;;;;;;6119339;23;20021;-77
2022/01/03 02:14:58;;;;;;;11.75;8.02;;;;;;;;;;6119002;23;20019;-79
2022/01/03 02:17:24;;;;;;;12.48;7.82;;;;;;;;;;6116763;23;20008;-77
2022/01/03 02:20:08;;;;;;;12.45;7.90;;;;;;;;;;6117201;23;20026;-78
2022/01/03 02:22:43;;;;;;;13.00;7.88;;;;;;;;;;6096164;23;20026;-78
2022/01/03 02:25:19;;;;;;;17.38;9.23;;;;;;;;;;6119369;23;20395;-82
2022/01/03 02:27:46;;;;;;;18.15;12.93;;;;;;;;;;6069463;23;20014;-78
2022/01/03 02:30:13;;;;;;;18.23;12.50;;;;;;;;;;6092860;23;20034;-80
2022/01/03 02:32:44;;;;;;;17.10;10.35;;;;;;;;;;6118725;23;20030;-77
2022/01/03 02:35:11;;;;;;;21.08;13.35;;;;;;;;;;6094581;23;20079;-77
2022/01/03 02:37:38;;;;;;;25.08;15.05;;;;;;;;;;6096333;23;20042;-79
2022/01/03 02:40:07;;;;;;;22.67;13.13;;;;;;;;;;6094469;23;20074;-77
2022/01/03 02:42:35;;;;;;;17.00;10.63;;;;;;;;;;6147049;23;20030;-78
2022/01/03 02:45:01;;;;;;;16.02;10.23;;;;;;;;;;6235602;23;20004;-77
2022/01/03 02:47:30;;;;;;;14.57;9.07;;;;;;;;;;6240614;23;20046;-78
2022/01/03 02:49:56;;;;;;;13.73;7.88;;;;;;;;;;6264854;23;20130;-77
2022/01/03 02:52:22;;;;;;;12.63;8.40;;;;;;;;;;6266831;23;20011;-80
2022/01/03 02:54:49;;;;;;;12.85;7.57;;;;;;;;;;6233840;23;20004;-79
2022/01/03 02:57:16;;;;;;;12.38;6.45;;;;;;;;;;6238397;23;20008;-77
2022/01/03 02:59:43;;;;;;;11.15;5.75;;;;;;;;;;6268117;23;19992;-77
2022/01/03 03:02:15;;;;;;;13.60;6.78;;;;;;;;;;6270616;23;20047;-80
2022/01/03 03:05:00;;;;;;;9.18;5.60;;;;;;;;;;6241119;23;20045;-77
2022/01/03 03:07:31;;;;;;;10.52;5.60;;;;;;;;;;6270580;23;19988;-78
2022/01/03 03:09:58;;;;;;;10.90;6.50;;;;;;;;;;6267360;23;20010;-77
2022/01/03 03:12:25;;;;;;;8.63;5.47;;;;;;;;;;6265360;23;20000;-76
2022/01/03 03:14:52;;;;;;;8.80;5.55;;;;;;;;;;6254508;22;20019;-78
2022/01/03 03:17:19;;;;;;;10.63;6.93;;;;;;;;;;6294962;22;19996;-77
2022/01/03 03:19:59;;;;;;;26.15;15.52;;;;;;;;;;6295378;22;20059;-78
2022/01/03 03:22:26;;;;;;;23.25;14.57;;;;;;;;;;6294681;22;20451;-78
2022/01/03 03:24:59;;;;;;;31.90;19.60;;;;;;;;;;6294577;22;20012;-77
2022/01/03 03:27:25;;;;;;;14.40;9.25;;;;;;;;;;6269333;22;20062;-78
2022/01/03 03:29:53;;;;;;;15.32;8.50;;;;;;;;;;6291291;22;20008;-77
2022/01/03 03:32:19;;;;;;;13.07;8.20;;;;;;;;;;6263068;22;20431;-77
2022/01/03 03:34:49;;;;;;;13.00;9.68;;;;;;;;;;6291305;22;20183;-79
2022/01/03 03:37:17;;;;;;;14.63;9.55;;;;;;;;;;6289392;22;20014;-78
2022/01/03 03:39:46;;;;;;;15.63;12.32;;;;;;;;;;6289346;22;20003;-77
2022/01/03 03:42:14;;;;;;;13.82;9.32;;;;;;;;;;6293188;22;20012;-79
2022/01/03 03:44:40;;;;;;;11.95;8.73;;;;;;;;;;6293025;22;20000;-77
2022/01/03 03:47:06;;;;;;;14.02;8.80;;;;;;;;;;6294559;22;20011;-78
2022/01/03 03:49:33;;;;;;;12.60;8.20;;;;;;;;;;6269594;22;20004;-78
2022/01/03 03:52:21;;;;;;;13.52;8.45;;;;;;;;;;6295057;22;20011;-77
2022/01/03 03:54:48;;;;;;;11.48;8.23;;;;;;;;;;6265157;22;20027;-78
2022/01/03 03:57:17;;;;;;;12.30;8.02;;;;;;;;;;6295708;22;19991;-78
2022/01/03 03:59:44;;;;;;;14.30;9.27;;;;;;;;;;6291781;22;19992;-77
2022/01/03 04:02:11;;;;;;;14.27;9.25;;;;;;;;;;6291765;22;20038;-79
2022/01/03 04:04:37;;;;;;;16.75;9.40;;;;;;;;;;6273338;22;20008;-79
2022/01/03 04:07:05;;;;;;;15.63;9.80;;;;;;;;;;6300557;22;20063;-78
2022/01/03 04:09:35;;;;;;;16.10;10.80;;;;;;;;;;6275024;22;20003;-76
2022/01/03 04:12:05;;;;;;;15.93;9.75;;;;;;;;;;6300367;22;20030;-77
2022/01/03 04:14:31;;;;;;;16.70;11.02;;;;;;;;;;6269504;22;20028;-77
2022/01/03 04:16:57;;;;;;;26.67;14.38;;;;;;;;;;6273861;22;19991;-77
2022/01/03 04:19:23;;;;;;;28.55;16.00;;;;;;;;;;6301040;22;20000;-79
2022/01/03 04:21:52;;;;;;;17.48;10.38;;;;;;;;;;6299340;22;19996;-77
2022/01/03 04:24:20;;;;;;;13.07;8.60;;;;;;;;;;6270013;22;20011;-79
2022/01/03 04:26:49;;;;;;;11.57;7.28;;;;;;;;;;6296991;22;20022;-78
2022/01/03 04:29:17;;;;;;;12.32;7.88;;;;;;;;;;6272868;22;20445;-77
2022/01/03 04:31:45;;;;;;;10.10;7.25;;;;;;;;;;6295756;22;20051;-78
2022/01/03 04:34:11;;;;;;;10.68;7.10;;;;;;;;;;6271383;22;20022;-78
2022/01/03 04:36:37;;;;;;;13.13;7.70;;;;;;;;;;6295315;22;20007;-79
2022/01/03 04:39:04;;;;;;;12.80;7.32;;;;;;;;;;6272052;22;20033;-77
2022/01/03 04:41:30;;;;;;;13.50;7.65;;;;;;;;;;6294446;22;20003;-78
2022/01/03 04:43:56;;;;;;;16.80;8.40;;;;;;;;;;6292816;22;20011;-77
2022/01/03 04:46:23;;;;;;;13.52;8.48;;;;;;;;;;6293981;22;20342;-78
2022/01/03 04:48:50;;;;;;;13.30;8.77;;;;;;;;;;6268712;22;20018;-77
2022/01/03 04:51:19;;;;;;;207.52;109.82;;;;;;;;;;6298952;22;19999;-77
2022/01/03 04:53:48;;;;;;;16.88;10.60;;;;;;;;;;6298741;22;20008;-78
2022/01/03 04:56:15;;;;;;;16.08;8.75;;;;;;;;;;6272316;22;20000;-78
2022/01/03 04:58:41;;;;;;;12.98;8.23;;;;;;;;;;6270175;22;20060;-78
2022/01/03 05:01:08;;;;;;;15.75;9.20;;;;;;;;;;6263797;22;20000;-78
2022/01/03 05:03:34;;;;;;;30.48;16.27;;;;;;;;;;6290766;22;20004;-77
2022/01/03 05:06:01;;;;;;;21.83;11.65;;;;;;;;;;6297869;22;20007;-77
2022/01/03 05:08:31;;;;;;;20.27;10.45;;;;;;;;;;6299453;22;20087;-79
2022/01/03 05:11:00;;;;;;;17.77;11.23;;;;;;;;;;6290543;22;20000;-75
2022/01/03 05:13:26;;;;;;;16.77;11.40;;;;;;;;;;6284106;22;19992;-76
2022/01/03 05:15:52;;;;;;;19.63;12.25;;;;;;;;;;6286072;22;19999;-77
2022/01/03 05:18:20;;;;;;;18.55;12.27;;;;;;;;;;6287784;22;20000;-78
2022/01/03 05:20:47;;;;;;;23.80;13.80;;;;;;;;;;6287778;22;20000;-78
2022/01/03 05:23:13;;;;;;;20.50;13.25;;;;;;;;;;6290219;22;19999;-78
2022/01/03 05:25:40;;;;;;;24.55;14.32;;;;;;;;;;6294238;22;20002;-77
2022/01/03 05:28:06;;;;;;;24.33;14.18;;;;;;;;;;6294406;22;20006;-77
2022/01/03 05:30:34;;;;;;;22.23;13.68;;;;;;;;;;6293745;22;20022;-78
2022/01/03 05:33:00;;;;;;;17.80;12.43;;;;;;;;;;6286556;22;19998;-78
2022/01/03 05:35:26;;;;;;;22.17;13.30;;;;;;;;;;6283802;22;20023;-76
2022/01/03 05:38:00;;;;;;;21.25;13.20;;;;;;;;;;6291806;22;20003;-79
2022/01/03 05:40:35;;;;;;;23.10;14.25;;;;;;;;;;6292623;22;20012;-76
2022/01/03 05:43:01;;;;;;;28.90;16.45;;;;;;;;;;6273500;22;20022;-78
2022/01/03 05:45:27;;;;;;;25.38;14.95;;;;;;;;;;6298112;22;19999;-78
2022/01/03 05:47:56;;;;;;;24.70;14.40;;;;;;;;;;6237166;23;20008;-78
2022/01/03 05:50:31;;;;;;;20.98;13.50;;;;;;;;;;6235570;23;20004;-76
2022/01/03 05:52:57;;;;;;;22.45;14.40;;;;;;;;;;6214103;23;20017;-76
2022/01/03 05:55:24;;;;;;;21.60;13.35;;;;;;;;;;6215392;23;20016;-76
2022/01/03 05:57:50;;;;;;;26.30;14.38;;;;;;;;;;6210465;23;19995;-76
2022/01/03 06:00:18;;;;;;;21.88;13.07;;;;;;;;;;6211927;22;19993;-76
2022/01/03 06:02:44;;;;;;;22.50;13.15;;;;;;;;;;6240354;22;20066;-76
2022/01/03 06:05:19;;;;;;;19.58;12.38;;;;;;;;;;6236900;23;19993;-77
2022/01/03 06:07:47;;;;;;;21.90;12.50;;;;;;;;;;6239078;22;19997;-78
2022/01/03 06:10:17;;;;;;;20.27;12.52;;;;;;;;;;6208437;23;20015;-77
2022/01/03 06:12:47;;;;;;;25.38;14.57;;;;;;;;;;6232865;23;20005;-78
2022/01/03 06:15:39;;;;;;;19.52;11.95;;;;;;;;;;6240755;22;20040;-77
2022/01/03 06:18:10;;;;;;;22.23;11.77;;;;;;;;;;6217976;22;20035;-78
2022/01/03 06:20:37;;;;;;;17.85;11.50;;;;;;;;;;6272086;22;20019;-77
2022/01/03 06:23:03;;;;;;;18.55;11.15;;;;;;;;;;6299156;22;19991;-79
2022/01/03 06:25:29;;;;;;;21.38;12.15;;;;;;;;;;6270669;22;19991;-75
2022/01/03 06:27:55;;;;;;;18.58;11.13;;;;;;;;;;6286942;22;20043;-75
2022/01/03 06:30:29;;;;;;;14.68;10.30;;;;;;;;;;6286331;22;20014;-72
2022/01/03 06:32:55;;;;;;;;;;;;;;;;;;6258062;22;20015;-74
2022/01/03 06:35:23;;;;;;;18.77;10.00;;;;;;;;;;6281096;22;19907;-72
2022/01/03 06:37:49;;;;;;;21.75;11.50;;;;;;;;;;6284601;22;19980;-76
2022/01/03 06:43:20;;;;;;;22.98;14.52;;;;;;;;;;6295398;22;20011;-76
2022/01/03 06:45:46;;;;;;;22.45;13.77;;;;;;;;;;6227937;22;20004;-75
2022/01/03 06:48:12;;;;;;;20.85;13.75;;;;;;;;;;6251541;22;20004;-74
2022/01/03 06:50:38;;;;;;;24.20;13.93;;;;;;;;;;6285473;22;20011;-77
2022/01/03 06:53:04;;;;;;;28.25;13.68;;;;;;;;;;6286185;22;20035;-78
2022/01/03 06:55:31;;;;;;;23.50;14.43;;;;;;;;;;6283738;22;20422;-77
2022/01/03 06:57:58;;;;;;;23.25;14.93;;;;;;;;;;6254707;22;20004;-76
2022/01/03 07:00:24;;;;;;;22.75;13.10;;;;;;;;;;6284897;22;19999;-76
2022/01/03 07:02:50;;;;;;;20.88;13.05;;;;;;;;;;6258455;22;20003;-76
2022/01/03 07:05:16;;;;;;;21.98;13.82;;;;;;;;;;6285536;22;20011;-77
2022/01/03 07:07:42;;;;;;;21.00;13.38;;;;;;;;;;6284225;22;20003;-78
2022/01/03 07:10:09;;;;;;;25.75;15.13;;;;;;;;;;6286493;22;20007;-77
2022/01/03 07:12:36;;;;;;;27.23;16.40;;;;;;;;;;6285364;22;20000;-77
2022/01/03 07:20:33;;;;;;;59.55;33.53;;;;;;;;;;6255443;23;20015;-77
2022/01/03 07:23:00;;;;;;;52.28;28.50;;;;;;;;;;6254696;23;20039;-78
2022/01/03 07:25:26;;;;;;;62.13;31.42;;;;;;;;;;6228426;23;20037;-78
2022/01/03 07:27:53;;;;;;;74.60;34.42;;;;;;;;;;6254535;23;20031;-76
2022/01/03 07:30:19;;;;;;;59.13;29.15;;;;;;;;;;6223741;23;20091;-78
2022/01/03 07:32:45;;;;;;;74.55;37.30;;;;;;;;;;6252238;23;20004;-74
2022/01/03 07:35:14;;;;;;;61.75;31.15;;;;;;;;;;6225624;23;20414;-76
2022/01/03 07:37:45;;;;;;;56.97;31.77;;;;;;;;;;6256556;23;20000;-77
2022/01/03 07:40:13;;;;;;;51.17;30.42;;;;;;;;;;6257669;23;20446;-77
2022/01/03 07:42:45;;;;;;;43.50;21.70;;;;;;;;;;6228999;23;19996;-77
2022/01/03 07:45:11;;;;;;;31.85;18.15;;;;;;;;;;6204373;23;20015;-77
2022/01/03 07:47:38;;;;;;;27.80;17.02;;;;;;;;;;6257309;23;20008;-77
2022/01/03 07:50:05;;;;;;;29.92;17.00;;;;;;;;;;6252752;23;19996;-75
2022/01/03 07:52:31;;;;;;;26.15;15.40;;;;;;;;;;6247332;22;20304;-76
2022/01/03 07:55:01;;;;;;;35.38;19.27;;;;;;;;;;6253750;23;20315;-72
2022/01/03 07:57:41;;;;;;;92.43;46.83;;;;;;;;;;6264280;23;19992;-82
2022/01/03 08:00:35;;;;;;;90.53;49.53;;;;;;;;;;6258062;23;20008;-78
2022/01/03 08:03:02;;;;;;;81.82;46.03;;;;;;;;;;6228681;23;20035;-77
2022/01/03 08:05:28;;;;;;;81.93;43.17;;;;;;;;;;6262909;23;20457;-80
2022/01/03 08:07:57;;;;;;;52.67;29.25;;;;;;;;;;6259067;23;20031;-77
2022/01/03 08:10:27;;;;;;;39.30;22.77;;;;;;;;;;6261700;23;20015;-76
2022/01/03 08:13:09;;;;;;;32.45;15.43;;;;;;;;;;6261086;23;19987;-79
2022/01/03 08:16:13;;;;;;;26.98;15.20;;;;;;;;;;6210256;23;20043;-78
2022/01/03 08:18:47;;;;;;;30.40;14.32;;;;;;;;;;6259987;23;20008;-76
2022/01/03 08:21:28;;;;;;;22.85;13.80;;;;;;;;;;6257660;23;20012;-80
2022/01/03 08:24:07;;;;;;;24.40;13.93;;;;;;;;;;6261904;23;20004;-82
2022/01/03 08:26:42;;;;;;;23.50;12.90;;;;;;;;;;6207709;23;20016;-80
2022/01/03 08:29:29;;;;;;;26.27;13.65;;;;;;;;;;6267802;22;20004;-79
2022/01/03 08:31:56;;;;;;;;;;;;;;;;;;6260182;23;20008;-78
2022/01/03 08:34:28;;;;;;;30.50;17.55;;;;;;;;;;6265340;23;19938;-79
2022/01/03 08:37:18;;;;;;;30.13;17.70;;;;;;;;;;6211232;23;20008;-77
2022/01/03 08:39:44;;;;;;;33.45;19.35;;;;;;;;;;6233424;23;20004;-74
2022/01/03 08:42:15;;;;;;;38.30;23.80;;;;;;;;;;6265429;23;20069;-76
2022/01/03 08:44:59;;;;;;;38.08;23.75;;;;;;;;;;6261288;23;20030;-79
2022/01/03 08:47:26;;;;;;;34.05;22.38;;;;;;;;;;6263494;23;19988;-79
2022/01/03 08:50:02;;;;;;;34.05;22.38;;;;;;;;;;6261100;23;20049;-77
2022/01/03 08:52:39;;;;;;;40.42;22.90;;;;;;;;;;6269698;23;20027;-82
2022/01/03 08:55:11;;;;;;;36.58;22.17;;;;;;;;;;6259917;23;20038;-78
2022/01/03 08:57:39;;;;;;;37.38;26.38;;;;;;;;;;6265860;23;20015;-79
2022/01/03 09:00:32;;;;;;;54.50;31.50;;;;;;;;;;6187871;23;20064;-78
2022/01/03 09:03:06;;;;;;;49.00;31.80;;;;;;;;;;6234276;23;19989;-75
2022/01/03 09:05:42;;;;;;;46.90;30.63;;;;;;;;;;6224813;22;20464;-78
2022/01/03 09:08:27;;;;;;;63.55;38.17;;;;;;;;;;6269366;22;20015;-77
2022/01/03 09:11:04;;;;;;;54.17;34.42;;;;;;;;;;6298232;22;20361;-77
2022/01/03 09:13:37;;;;;;;67.88;44.50;;;;;;;;;;6295863;22;20014;-78
2022/01/03 09:16:26;;;;;;;64.30;44.70;;;;;;;;;;6300959;22;20015;-79
2022/01/03 09:18:52;;;;;;;68.25;45.97;;;;;;;;;;6271734;22;20041;-76
2022/01/03 09:21:32;;;;;;;70.25;46.47;;;;;;;;;;6295909;22;20024;-77
2022/01/03 09:29:41;;;;;;;61.90;39.35;;;;;;;;;;6197671;23;20047;-77
2022/01/03 09:32:20;;;;;;;61.63;37.47;;;;;;;;;;6202085;23;20005;-76
2022/01/03 09:34:51;;;;;;;53.38;37.15;;;;;;;;;;6198595;23;20024;-77
2022/01/03 09:37:20;;;;;;;52.70;37.10;;;;;;;;;;6195161;23;20009;-75
2022/01/03 09:39:49;;;;;;;55.83;36.90;;;;;;;;;;6197031;23;20001;-77
2022/01/03 09:42:22;;;;;;;58.78;38.95;;;;;;;;;;6178214;23;20001;-75
2022/01/03 09:44:49;;;;;;;54.08;38.00;;;;;;;;;;6201046;23;20093;-74
2022/01/03 09:47:17;;;;;;;69.43;47.58;;;;;;;;;;6204916;23;20016;-74
2022/01/03 09:49:43;;;;;;;61.55;41.80;;;;;;;;;;6179864;23;20167;-73
2022/01/03 09:52:10;;;;;;;53.08;35.90;;;;;;;;;;6197635;23;20005;-74
2022/01/03 09:54:36;;;;;;;67.07;42.17;;;;;;;;;;6206185;23;19993;-74
2022/01/03 09:57:04;;;;;;;68.32;44.13;;;;;;;;;;6204617;23;20012;-74
2022/01/03 09:59:30;;;;;;;70.65;46.22;;;;;;;;;;6202537;23;20063;-75
2022/01/03 10:02:18;;;;;;;90.22;56.42;;;;;;;;;;6194504;23;20032;-79
2022/01/03 10:07:21;;;;;;;66.97;37.13;;;;;;;;;;6197039;23;20053;-76
2022/01/03 10:09:49;;;;;;;54.22;35.53;;;;;;;;;;6171093;23;20013;-77
2022/01/03 10:12:19;;;;;;;63.45;40.53;;;;;;;;;;6173337;23;20427;-77
2022/01/03 10:14:49;;;;;;;51.20;33.40;;;;;;;;;;6173555;23;20013;-76
2022/01/03 10:17:15;;;;;;;49.97;32.83;;;;;;;;;;6176767;23;20027;-80
2022/01/03 10:19:51;;;;;;;60.78;39.47;;;;;;;;;;6198227;23;19997;-77
2022/01/03 10:22:28;;;;;;;50.95;34.72;;;;;;;;;;6173154;23;20068;-77
2022/01/03 10:24:54;;;;;;;52.45;32.95;;;;;;;;;;6194770;23;20008;-77
2022/01/03 10:27:22;;;;;;;54.55;34.08;;;;;;;;;;6174747;23;20001;-76
2022/01/03 10:29:56;;;;;;;42.58;27.38;;;;;;;;;;6200866;23;20025;-76
2022/01/03 10:32:30;;;;;;;44.25;30.25;;;;;;;;;;6195257;23;20001;-75
2022/01/03 10:34:59;;;;;;;46.65;30.52;;;;;;;;;;6170522;23;20013;-77
2022/01/03 10:37:37;;;;;;;43.78;28.77;;;;;;;;;;6196142;23;19997;-77
2022/01/03 10:40:17;;;;;;;52.40;30.30;;;;;;;;;;6165873;23;20016;-74
2022/01/03 10:45:50;;;;;;;48.00;30.80;;;;;;;;;;6205616;23;20016;-79
2022/01/03 10:48:31;;;;;;;51.20;31.95;;;;;;;;;;6170492;23;19998;-77
2022/01/03 10:51:00;;;;;;;44.40;30.00;;;;;;;;;;6175159;23;20005;-73
2022/01/03 10:53:43;;;;;;;38.38;26.95;;;;;;;;;;6176631;23;20011;-76
2022/01/03 10:56:28;;;;;;;38.58;24.23;;;;;;;;;;6201505;23;20005;-77
2022/01/03 10:58:58;;;;;;;32.25;21.15;;;;;;;;;;6190515;23;20009;-76
2022/01/03 11:01:28;;;;;;;37.65;22.75;;;;;;;;;;6228186;23;20052;-77
2022/01/03 11:04:07;;;;;;;29.33;19.70;;;;;;;;;;6209315;23;20004;-78
2022/01/03 11:07:01;;;;;;;30.75;18.50;;;;;;;;;;6251494;23;20031;-76
2022/01/03 11:12:35;;;;;;;27.88;18.30;;;;;;;;;;6261272;23;20098;-77
2022/01/03 11:15:31;;;;;;;28.27;16.48;;;;;;;;;;6253917;23;20393;-76
2022/01/03 11:18:14;;;;;;;25.48;14.93;;;;;;;;;;6262624;23;19996;-75
2022/01/03 11:21:01;;;;;;;19.25;12.68;;;;;;;;;;6263255;23;20004;-79
2022/01/03 11:23:28;;;;;;;20.38;13.00;;;;;;;;;;6262297;23;20052;-76
2022/01/03 11:26:16;;;;;;;18.45;13.45;;;;;;;;;;6234709;23;20015;-78
2022/01/03 11:28:44;;;;;;;17.13;12.18;;;;;;;;;;6226038;23;20021;-79
2022/01/03 11:31:29;;;;;;;16.73;11.88;;;;;;;;;;6237430;23;20031;-80
2022/01/03 11:34:04;;;;;;;20.02;13.63;;;;;;;;;;6229363;23;20459;-76
2022/01/03 11:36:55;;;;;;;19.75;12.20;;;;;;;;;;6226260;23;20015;-78
2022/01/03 11:39:43;;;;;;;21.88;13.07;;;;;;;;;;6146428;23;19998;-80
2022/01/03 11:42:51;;;;;;;18.98;11.10;;;;;;;;;;6056080;23;20031;-79
2022/01/03 11:45:19;;;;;;;20.02;11.90;;;;;;;;;;6054092;23;20003;-76
2022/01/03 11:47:49;;;;;;;19.70;10.77;;;;;;;;;;6045379;23;20007;-76
2022/01/03 11:50:24;;;;;;;17.80;11.00;;;;;;;;;;6047015;23;20003;-78
2022/01/03 11:53:10;;;;;;;17.58;11.20;;;;;;;;;;6051553;23;20105;-74
2022/01/03 11:55:40;;;;;;;19.17;12.80;;;;;;;;;;6050896;23;20063;-75
2022/01/03 11:58:24;;;;;;;15.90;11.10;;;;;;;;;;6023096;23;20007;-75
2022/01/03 12:03:55;;;;;;;16.98;10.55;;;;;;;;;;6077410;23;20076;-76
2022/01/03 12:06:40;;;;;;;17.52;10.73;;;;;;;;;;6069517;23;20027;-76
2022/01/03 12:09:18;;;;;;;12.57;9.80;;;;;;;;;;6073452;23;20430;-76
2022/01/03 12:27:51;;;;;;;15.25;12.00;;;;;;;;;;6265358;22;20007;-79
2022/01/03 12:30:39;;;;;;;20.00;12.77;;;;;;;;;;6252465;22;19992;-77
2022/01/03 12:39:23;;;;;;;20.43;13.00;;;;;;;;;;6307781;22;20003;-83
2022/01/03 12:42:28;;;;;;;25.20;14.95;;;;;;;;;;6254132;22;20020;-83
2022/01/03 12:45:08;;;;;;;19.88;14.07;;;;;;;;;;6108633;23;20013;-80
2022/01/03 12:47:55;;;;;;;21.65;13.65;;;;;;;;;;6132342;23;19996;-81
2022/01/03 12:50:29;;;;;;;21.65;14.77;;;;;;;;;;6173839;23;20060;-77
2022/01/03 12:53:02;;;;;;;21.45;15.15;;;;;;;;;;6156325;23;20006;-81
2022/01/03 12:55:58;;;;;;;22.38;14.95;;;;;;;;;;6180491;23;20041;-81
2022/01/03 12:58:56;;;;;;;25.85;16.95;;;;;;;;;;6119047;23;20006;-82
2022/01/03 13:01:27;;;;;;;23.17;17.10;;;;;;;;;;6092408;23;20007;-83
2022/01/03 13:04:11;;;;;;;21.70;15.85;;;;;;;;;;6062749;23;20577;-79
2022/01/03 13:06:38;;;;;;;22.98;15.68;;;;;;;;;;6089170;23;20030;-79
2022/01/03 13:09:04;;;;;;;26.50;14.90;;;;;;;;;;6050760;23;20038;-77
2022/01/03 13:11:31;;;;;;;22.52;14.20;;;;;;;;;;6075038;23;20007;-77
2022/01/03 13:14:03;;;;;;;25.63;15.18;;;;;;;;;;6073406;23;20017;-76
2022/01/03 13:16:42;;;;;;;26.35;17.13;;;;;;;;;;6119982;23;20010;-74
2022/01/03 13:19:26;;;;;;;29.38;18.17;;;;;;;;;;6118890;23;19998;-81
2022/01/03 13:22:04;;;;;;;34.88;20.05;;;;;;;;;;6118667;23;19990;-82
2022/01/03 13:24:37;;;;;;;29.25;18.67;;;;;;;;;;6149648;23;20010;-79
2022/01/03 13:27:07;;;;;;;32.40;21.05;;;;;;;;;;6078398;23;19998;-78
2022/01/03 13:29:44;;;;;;;39.67;24.90;;;;;;;;;;6140482;23;19990;-81
2022/01/03 13:32:15;;;;;;;35.50;20.77;;;;;;;;;;6118197;23;19994;-79
2022/01/03 13:34:55;;;;;;;25.83;17.95;;;;;;;;;;6105814;23;20020;-82
2022/01/03 13:37:27;;;;;;;34.60;24.00;;;;;;;;;;6137380;23;19995;-80
2022/01/03 13:39:56;;;;;;;34.88;22.35;;;;;;;;;;6236998;23;19993;-77
2022/01/03 14:09:22;;;;;;;32.90;22.05;;;;;;;;;;6299912;22;20476;-78
2022/01/03 14:12:11;;;;;;;35.70;23.38;;;;;;;;;;6297803;22;20000;-79
2022/01/03 14:15:07;;;;;;;37.42;24.48;;;;;;;;;;6057225;23;20152;-80
2022/01/03 14:17:58;;;;;;;36.40;25.63;;;;;;;;;;6011383;23;19995;-79
2022/01/03 14:20:27;;;;;;;121.40;68.38;;;;;;;;;;6050303;23;20015;-78
2022/01/03 14:26:23;;;;;;;46.50;21.35;;;;;;;;;;5952105;24;20133;-80
2022/01/03 14:32:37;;;;;;;23.85;16.98;;;;;;;;;;5899210;24;20005;-81
2022/01/03 14:44:25;;;;;;;35.83;23.95;;;;;;;;;;6304972;22;20060;-80
2022/01/03 14:56:04;;;;;;;31.92;20.60;;;;;;;;;;6301970;22;20014;-81
2022/01/03 14:58:32;;;;;;;22.13;14.40;;;;;;;;;;6302639;22;20000;-81
2022/01/03 15:01:19;;;;;;;26.38;15.93;;;;;;;;;;6248506;22;19987;-79
2022/01/03 15:03:45;;;;;;;21.65;14.27;;;;;;;;;;6253208;22;20023;-77
2022/01/03 15:06:13;;;;;;;27.33;15.57;;;;;;;;;;6289490;22;20018;-77
2022/01/03 15:09:16;;;;;;;20.33;14.32;;;;;;;;;;6274668;22;19991;-80
2022/01/03 15:11:44;;;;;;;21.73;14.05;;;;;;;;;;6295019;22;20012;-78
2022/01/03 15:14:42;;;;;;;34.28;22.50;;;;;;;;;;6301799;22;20034;-81
2022/01/03 15:17:19;;;;;;;61.13;37.17;;;;;;;;;;6297238;22;20437;-70
2022/01/03 15:19:51;;;;;;;62.85;39.97;;;;;;;;;;6250389;22;20088;-69
2022/01/03 15:22:36;;;;;;;62.95;33.58;;;;;;;;;;6251710;22;20007;-70
2022/01/03 15:25:03;;;;;;;50.15;29.65;;;;;;;;;;6280008;22;20080;-75
2022/01/03 15:27:29;;;;;;;45.28;27.10;;;;;;;;;;6276706;22;20000;-74
2022/01/03 15:29:55;;;;;;;40.83;22.85;;;;;;;;;;6276851;22;20051;-74
2022/01/03 15:32:22;;;;;;;83.50;48.75;;;;;;;;;;6249743;22;20015;-76
2022/01/03 15:34:48;;;;;;;229.88;143.40;;;;;;;;;;6278795;22;20012;-76
2022/01/03 15:37:17;;;;;;;201.50;138.27;;;;;;;;;;6279989;22;20006;-78
2022/01/03 15:39:49;;;;;;;144.07;106.50;;;;;;;;;;6296077;22;20086;-82
2022/01/03 15:42:36;;;;;;;122.20;93.22;;;;;;;;;;6207175;23;19985;-84
2022/01/03 15:45:55;;;;;;;84.93;56.13;;;;;;;;;;6203876;23;20020;-79
2022/01/03 15:51:07;;;;;;;56.38;34.63;;;;;;;;;;6262063;22;20020;-78
2022/01/03 15:53:38;;;;;;;51.50;31.20;;;;;;;;;;6301154;22;20003;-79
2022/01/03 15:56:24;;;;;;;84.22;55.50;;;;;;;;;;6294351;22;20045;-75
2022/01/03 15:58:59;;;;;;;98.82;68.65;;;;;;;;;;6291432;22;20003;-77
2022/01/03 16:01:27;;;;;;;221.80;133.73;;;;;;;;;;6287945;22;20000;-79
2022/01/03 16:03:54;;;;;;;240.73;156.48;;;;;;;;;;6265426;22;20011;-78
2022/01/03 16:06:22;;;;;;;143.50;91.82;;;;;;;;;;6293193;22;19992;-78
2022/01/03 16:09:10;;;;;;;86.35;52.15;;;;;;;;;;6296687;22;19988;-78
2022/01/03 16:11:51;;;;;;;80.00;45.75;;;;;;;;;;6274179;22;20008;-79
2022/01/03 16:17:35;;;;;;;163.95;106.50;;;;;;;;;;6302564;22;20399;-79
2022/01/03 16:20:35;;;;;;;126.38;83.88;;;;;;;;;;6143540;23;20017;-78
2022/01/03 16:23:03;;;;;;;103.57;66.47;;;;;;;;;;6078767;23;20017;-78
2022/01/03 16:25:57;;;;;;;90.25;55.95;;;;;;;;;;6175845;23;20001;-76
2022/01/03 16:28:24;;;;;;;;;;;;;;;;;;6180050;23;20383;-77
2022/01/03 16:30:51;;;;;;;89.68;52.83;;;;;;;;;;6142257;23;19900;-75
2022/01/03 16:33:25;;;;;;;83.10;49.60;;;;;;;;;;6166541;23;20053;-78
2022/01/03 16:35:54;;;;;;;95.78;56.58;;;;;;;;;;6175529;23;20009;-79
2022/01/03 16:38:32;;;;;;;77.65;48.67;;;;;;;;;;6172814;23;20006;-77
2022/01/03 16:41:00;;;;;;;71.60;37.85;;;;;;;;;;6170255;23;20029;-73